Time;durP1;ratioP1;P1;durP2;ratioP2;P2;SDS_P1;SDS_P2;PMS_P1;PMS_P2;Temp;Humidity;BMP_temperature;BMP_pressure;BME280_temperature;BME280_humidity;BME280_pressure;Samples;Min_cycle;Max_cycle;Signal;HPM_P1;HPM_P2
2022/07/22 00:01:31;;;;;;;9.18;2.80;;;;;;;;;;5024038;28;20485;-73
2022/07/22 00:03:57;;;;;;;8.40;2.95;;;;;;;;;;5025707;28;20064;-74
2022/07/22 00:06:23;;;;;;;7.20;2.72;;;;;;;;;;5006447;28;20048;-73
2022/07/22 00:08:50;;;;;;;5.68;2.70;;;;;;;;;;5024766;28;20056;-73
2022/07/22 00:11:16;;;;;;;6.82;2.90;;;;;;;;;;5016512;28;20096;-73
2022/07/22 00:13:42;;;;;;;7.25;2.85;;;;;;;;;;4972777;28;20505;-74
2022/07/22 00:16:08;;;;;;;7.20;2.60;;;;;;;;;;5011316;28;20046;-73
2022/07/22 00:18:34;;;;;;;7.97;2.55;;;;;;;;;;5018629;28;20564;-73
2022/07/22 00:21:00;;;;;;;6.55;2.50;;;;;;;;;;4989235;28;20106;-74
2022/07/22 00:23:26;;;;;;;6.32;2.47;;;;;;;;;;5006603;28;20055;-74
2022/07/22 00:25:53;;;;;;;7.65;2.47;;;;;;;;;;4992372;28;20041;-73
2022/07/22 00:28:19;;;;;;;11.50;3.15;;;;;;;;;;5021808;28;20106;-74
2022/07/22 00:30:45;;;;;;;5.68;2.78;;;;;;;;;;5024162;28;20057;-73
2022/07/22 00:33:11;;;;;;;11.02;3.00;;;;;;;;;;5023686;28;20046;-73
2022/07/22 00:35:37;;;;;;;6.35;2.58;;;;;;;;;;5025551;28;20514;-73
2022/07/22 00:38:03;;;;;;;8.23;2.88;;;;;;;;;;5024849;28;20048;-72
2022/07/22 00:40:29;;;;;;;7.13;2.50;;;;;;;;;;5025959;28;20042;-74
2022/07/22 00:42:55;;;;;;;7.20;2.60;;;;;;;;;;5024021;28;20041;-74
2022/07/22 00:45:21;;;;;;;5.93;2.20;;;;;;;;;;5016627;23;20509;-76
2022/07/22 00:47:47;;;;;;;6.05;2.50;;;;;;;;;;5009147;28;20052;-77
2022/07/22 00:50:14;;;;;;;5.95;2.30;;;;;;;;;;5011863;28;20242;-77
2022/07/22 00:52:41;;;;;;;8.30;2.45;;;;;;;;;;5012562;28;20125;-77
2022/07/22 00:55:08;;;;;;;8.43;2.40;;;;;;;;;;5011595;28;20069;-77
2022/07/22 00:57:34;;;;;;;8.50;2.65;;;;;;;;;;5011352;28;20092;-77
2022/07/22 01:00:00;;;;;;;10.65;3.40;;;;;;;;;;5010329;28;20042;-78
2022/07/22 01:02:26;;;;;;;7.03;3.00;;;;;;;;;;4993423;28;20562;-77
2022/07/22 01:04:52;;;;;;;7.72;2.80;;;;;;;;;;5010612;28;20046;-77
2022/07/22 01:07:18;;;;;;;6.85;3.05;;;;;;;;;;5011705;28;20461;-76
2022/07/22 01:09:45;;;;;;;8.15;3.05;;;;;;;;;;5012575;28;20042;-77
2022/07/22 01:12:11;;;;;;;7.57;2.80;;;;;;;;;;5012014;28;20102;-77
2022/07/22 01:14:37;;;;;;;5.95;2.25;;;;;;;;;;5012509;28;20398;-77
2022/07/22 01:17:04;;;;;;;5.70;2.60;;;;;;;;;;5005333;28;20046;-77
2022/07/22 01:19:30;;;;;;;7.88;2.65;;;;;;;;;;5015631;28;20561;-77
2022/07/22 01:21:56;;;;;;;6.30;2.30;;;;;;;;;;5015748;28;20434;-76
2022/07/22 01:24:22;;;;;;;9.43;2.60;;;;;;;;;;4996238;28;20052;-76
2022/07/22 01:26:48;;;;;;;5.30;2.78;;;;;;;;;;4997688;28;20049;-77
2022/07/22 01:29:17;;;;;;;7.95;2.70;;;;;;;;;;4982196;28;20046;-77
2022/07/22 01:31:43;;;;;;;7.82;2.65;;;;;;;;;;5012909;28;20049;-77
2022/07/22 01:34:09;;;;;;;5.70;2.40;;;;;;;;;;5008153;28;21372;-78
2022/07/22 01:36:35;;;;;;;6.50;2.58;;;;;;;;;;5012164;28;20106;-77
2022/07/22 01:39:01;;;;;;;5.25;2.55;;;;;;;;;;5014448;28;20428;-77
2022/07/22 01:41:28;;;;;;;6.40;2.53;;;;;;;;;;5014238;28;20041;-77
2022/07/22 01:43:54;;;;;;;5.05;2.83;;;;;;;;;;5002961;28;20409;-75
2022/07/22 01:46:20;;;;;;;5.28;2.25;;;;;;;;;;5006925;28;20452;-76
2022/07/22 01:48:46;;;;;;;5.47;2.30;;;;;;;;;;5014845;28;20046;-77
2022/07/22 01:51:12;;;;;;;6.53;2.60;;;;;;;;;;5013796;28;20042;-76
2022/07/22 01:53:38;;;;;;;8.23;2.80;;;;;;;;;;5014036;28;20046;-76
2022/07/22 01:56:04;;;;;;;6.20;2.80;;;;;;;;;;5014639;28;20049;-76
2022/07/22 01:58:30;;;;;;;5.40;2.38;;;;;;;;;;5015134;28;20054;-77
2022/07/22 02:00:56;;;;;;;6.63;2.30;;;;;;;;;;4994152;28;20429;-77
2022/07/22 02:03:22;;;;;;;6.88;2.35;;;;;;;;;;4995857;28;20042;-77
2022/07/22 02:05:49;;;;;;;6.32;2.78;;;;;;;;;;5010187;28;20080;-76
2022/07/22 02:08:15;;;;;;;7.28;2.78;;;;;;;;;;5015091;28;20048;-77
2022/07/22 02:10:41;;;;;;;8.75;2.88;;;;;;;;;;5013861;28;20170;-77
2022/07/22 02:13:07;;;;;;;6.78;2.63;;;;;;;;;;4998767;28;20088;-77
2022/07/22 02:15:36;;;;;;;5.25;2.60;;;;;;;;;;5015076;28;20064;-77
2022/07/22 02:18:15;;;;;;;6.47;2.60;;;;;;;;;;5013843;28;20075;-77
2022/07/22 02:20:41;;;;;;;15.50;3.22;;;;;;;;;;5013765;28;20133;-76
2022/07/22 02:23:08;;;;;;;6.32;2.80;;;;;;;;;;5015252;28;20108;-77
2022/07/22 02:25:34;;;;;;;7.95;2.70;;;;;;;;;;5014843;28;20050;-77
2022/07/22 02:28:03;;;;;;;6.47;2.80;;;;;;;;;;5014888;28;20133;-77
2022/07/22 02:30:29;;;;;;;5.55;2.55;;;;;;;;;;5013052;28;20056;-75
2022/07/22 02:32:58;;;;;;;7.57;2.53;;;;;;;;;;4997713;28;20050;-76
2022/07/22 02:35:24;;;;;;;7.85;2.63;;;;;;;;;;5013954;28;20068;-77
2022/07/22 02:37:50;;;;;;;7.55;2.63;;;;;;;;;;5014855;28;20170;-77
2022/07/22 02:40:17;;;;;;;5.18;2.80;;;;;;;;;;5012481;28;20038;-77
2022/07/22 02:42:43;;;;;;;9.02;2.80;;;;;;;;;;5014214;28;20045;-77
2022/07/22 02:45:09;;;;;;;4.88;2.50;;;;;;;;;;4985151;28;20077;-78
2022/07/22 02:47:35;;;;;;;7.32;2.70;;;;;;;;;;5011098;28;20129;-77
2022/07/22 02:50:01;;;;;;;7.18;2.83;;;;;;;;;;5003130;28;20501;-77
2022/07/22 02:52:27;;;;;;;6.30;2.67;;;;;;;;;;5012633;28;20101;-77
2022/07/22 02:54:53;;;;;;;7.40;2.55;;;;;;;;;;5014538;28;20042;-77
2022/07/22 02:57:19;;;;;;;5.05;2.20;;;;;;;;;;5012909;28;20042;-76
2022/07/22 02:59:45;;;;;;;7.93;2.70;;;;;;;;;;5014424;28;20038;-76
2022/07/22 03:02:11;;;;;;;7.93;2.85;;;;;;;;;;5013197;28;20484;-77
2022/07/22 03:04:37;;;;;;;7.68;2.70;;;;;;;;;;5014246;28;20564;-77
2022/07/22 03:07:03;;;;;;;7.32;2.58;;;;;;;;;;5013056;28;20129;-77
2022/07/22 03:09:29;;;;;;;8.30;2.78;;;;;;;;;;5014305;28;20129;-77
2022/07/22 03:11:55;;;;;;;6.85;2.60;;;;;;;;;;5013729;28;20169;-77
2022/07/22 03:14:21;;;;;;;6.13;2.60;;;;;;;;;;4996605;28;20162;-78
2022/07/22 03:16:48;;;;;;;6.78;2.70;;;;;;;;;;5013104;28;20096;-77
2022/07/22 03:19:14;;;;;;;8.18;3.10;;;;;;;;;;4996171;28;20038;-78
2022/07/22 03:21:40;;;;;;;6.93;2.65;;;;;;;;;;5013387;28;20044;-78
2022/07/22 03:24:06;;;;;;;6.85;2.72;;;;;;;;;;4997027;28;20049;-78
2022/07/22 03:26:32;;;;;;;5.85;2.53;;;;;;;;;;5012384;28;20041;-77
2022/07/22 03:28:58;;;;;;;5.65;2.65;;;;;;;;;;5013883;28;20052;-78
2022/07/22 03:31:24;;;;;;;8.10;2.42;;;;;;;;;;5012918;28;20508;-77
2022/07/22 03:33:50;;;;;;;7.97;2.40;;;;;;;;;;5013481;28;20046;-77
2022/07/22 03:36:16;;;;;;;6.38;2.50;;;;;;;;;;5012772;28;20063;-76
2022/07/22 03:38:42;;;;;;;3.78;2.40;;;;;;;;;;4995120;28;20042;-76
2022/07/22 03:41:08;;;;;;;6.97;2.58;;;;;;;;;;4995452;28;20049;-77
2022/07/22 03:43:34;;;;;;;4.05;2.78;;;;;;;;;;4997423;28;20165;-77
2022/07/22 03:46:00;;;;;;;7.30;2.40;;;;;;;;;;4996482;28;20413;-77
2022/07/22 03:48:26;;;;;;;6.90;2.50;;;;;;;;;;5012365;28;20046;-78
2022/07/22 03:50:52;;;;;;;6.85;2.55;;;;;;;;;;5011907;28;20084;-77
2022/07/22 03:53:20;;;;;;;5.95;2.38;;;;;;;;;;5013502;28;20042;-77
2022/07/22 03:55:46;;;;;;;4.68;2.38;;;;;;;;;;5012699;28;20046;-77
2022/07/22 03:58:12;;;;;;;6.18;2.50;;;;;;;;;;4994819;28;20053;-78
2022/07/22 04:00:41;;;;;;;10.35;2.75;;;;;;;;;;5012375;28;20552;-77
2022/07/22 04:03:07;;;;;;;4.50;2.60;;;;;;;;;;5013317;28;20041;-76
2022/07/22 04:05:33;;;;;;;11.20;2.90;;;;;;;;;;5013037;28;20125;-78
2022/07/22 04:07:59;;;;;;;5.25;2.70;;;;;;;;;;4994584;28;20128;-78
2022/07/22 04:10:25;;;;;;;5.78;2.67;;;;;;;;;;4995615;28;20088;-78
2022/07/22 04:12:51;;;;;;;6.90;2.50;;;;;;;;;;5012405;28;20515;-77
2022/07/22 04:15:17;;;;;;;6.18;2.60;;;;;;;;;;5013172;28;20081;-77
2022/07/22 04:17:43;;;;;;;7.78;2.70;;;;;;;;;;5011317;28;20065;-77
2022/07/22 04:20:09;;;;;;;7.65;2.67;;;;;;;;;;5013316;28;20079;-78
2022/07/22 04:22:35;;;;;;;4.88;2.63;;;;;;;;;;5013077;28;20481;-78
2022/07/22 04:25:01;;;;;;;7.18;2.60;;;;;;;;;;5013293;28;20046;-77
2022/07/22 04:27:27;;;;;;;7.95;2.50;;;;;;;;;;5011241;28;20088;-76
2022/07/22 04:29:53;;;;;;;6.05;2.60;;;;;;;;;;4995006;28;20370;-77
2022/07/22 04:32:19;;;;;;;6.25;2.40;;;;;;;;;;5012252;28;20441;-76
2022/07/22 04:34:45;;;;;;;10.15;2.92;;;;;;;;;;5013002;28;20042;-77
2022/07/22 04:37:11;;;;;;;5.53;2.55;;;;;;;;;;5012342;28;20471;-77
2022/07/22 04:39:37;;;;;;;4.20;2.50;;;;;;;;;;5013147;28;20125;-77
2022/07/22 04:42:04;;;;;;;7.28;2.63;;;;;;;;;;5012228;28;20077;-77
2022/07/22 04:44:30;;;;;;;4.95;2.40;;;;;;;;;;5009891;28;20053;-77
2022/07/22 04:46:56;;;;;;;4.10;2.35;;;;;;;;;;5009818;28;20050;-76
2022/07/22 04:49:25;;;;;;;5.13;2.42;;;;;;;;;;5011825;28;20045;-78
2022/07/22 04:51:52;;;;;;;6.05;2.65;;;;;;;;;;4995321;28;20493;-78
2022/07/22 04:54:18;;;;;;;6.35;2.67;;;;;;;;;;5013890;28;20077;-78
2022/07/22 04:56:44;;;;;;;5.03;2.50;;;;;;;;;;5015509;28;20480;-78
2022/07/22 04:59:13;;;;;;;6.10;2.55;;;;;;;;;;5015213;28;20429;-78
2022/07/22 05:01:39;;;;;;;5.97;2.67;;;;;;;;;;5016397;28;20406;-78
2022/07/22 05:04:05;;;;;;;6.50;2.47;;;;;;;;;;5015990;28;20516;-78
2022/07/22 05:06:31;;;;;;;5.22;2.58;;;;;;;;;;5016485;28;20042;-79
2022/07/22 05:08:57;;;;;;;6.03;2.60;;;;;;;;;;5015765;28;20049;-77
2022/07/22 05:11:23;;;;;;;5.40;2.60;;;;;;;;;;5016507;28;20048;-76
2022/07/22 05:13:49;;;;;;;6.13;2.58;;;;;;;;;;5015723;28;20116;-76
2022/07/22 05:16:15;;;;;;;5.35;2.95;;;;;;;;;;4998909;28;20141;-76
2022/07/22 05:18:41;;;;;;;5.82;2.50;;;;;;;;;;5014040;28;20128;-76
2022/07/22 05:21:07;;;;;;;7.63;2.40;;;;;;;;;;5015317;28;20100;-76
2022/07/22 05:23:33;;;;;;;6.32;2.42;;;;;;;;;;5016341;28;20046;-77
2022/07/22 05:25:59;;;;;;;5.55;2.45;;;;;;;;;;5015291;28;20060;-76
2022/07/22 05:28:25;;;;;;;4.68;2.28;;;;;;;;;;5014707;28;20507;-77
2022/07/22 05:30:51;;;;;;;5.55;2.30;;;;;;;;;;5015444;28;20095;-77
2022/07/22 05:33:17;;;;;;;3.83;2.40;;;;;;;;;;5016176;28;20049;-77
2022/07/22 05:35:43;;;;;;;5.53;2.53;;;;;;;;;;5003113;28;20141;-77
2022/07/22 05:38:09;;;;;;;9.65;2.55;;;;;;;;;;5006785;28;20443;-77
2022/07/22 05:40:35;;;;;;;5.68;2.30;;;;;;;;;;5015103;28;20042;-77
2022/07/22 05:43:01;;;;;;;7.60;2.65;;;;;;;;;;5015134;28;20555;-77
2022/07/22 05:45:30;;;;;;;4.13;2.15;;;;;;;;;;5014857;28;20137;-77
2022/07/22 05:47:56;;;;;;;4.70;2.28;;;;;;;;;;5014837;28;20057;-76
2022/07/22 05:50:22;;;;;;;6.68;2.55;;;;;;;;;;5014996;28;20041;-76
2022/07/22 05:52:48;;;;;;;3.33;1.98;;;;;;;;;;5015789;28;20497;-75
2022/07/22 05:55:14;;;;;;;5.95;2.40;;;;;;;;;;5014908;28;20049;-75
2022/07/22 05:57:41;;;;;;;6.88;2.17;;;;;;;;;;4997646;28;20147;-75
2022/07/22 06:00:07;;;;;;;4.25;2.40;;;;;;;;;;4990361;28;20074;-75
2022/07/22 06:02:34;;;;;;;5.72;2.50;;;;;;;;;;4977948;28;20125;-76
2022/07/22 06:05:00;;;;;;;4.10;2.38;;;;;;;;;;4984203;28;20168;-76
2022/07/22 06:07:27;;;;;;;4.20;1.90;;;;;;;;;;4980630;28;20038;-75
2022/07/22 06:09:53;;;;;;;5.03;2.40;;;;;;;;;;5015118;28;20429;-76
2022/07/22 06:12:19;;;;;;;6.18;2.33;;;;;;;;;;4997731;28;20050;-76
2022/07/22 06:14:46;;;;;;;6.95;2.40;;;;;;;;;;4996801;28;20061;-75
2022/07/22 06:17:12;;;;;;;4.40;2.40;;;;;;;;;;4995994;28;20553;-75
2022/07/22 06:19:38;;;;;;;6.30;2.20;;;;;;;;;;4981366;28;20046;-75
2022/07/22 06:22:04;;;;;;;5.03;2.45;;;;;;;;;;4996892;28;20571;-76
2022/07/22 06:24:30;;;;;;;5.20;2.30;;;;;;;;;;4997575;28;20058;-75
2022/07/22 06:26:56;;;;;;;5.95;2.45;;;;;;;;;;4996750;28;20049;-77
2022/07/22 06:29:22;;;;;;;4.65;2.45;;;;;;;;;;5014958;28;20058;-75
2022/07/22 06:31:48;;;;;;;6.68;2.80;;;;;;;;;;5014378;28;20057;-76
2022/07/22 06:34:14;;;;;;;6.03;2.05;;;;;;;;;;5015039;28;20041;-76
2022/07/22 06:36:40;;;;;;;4.90;2.10;;;;;;;;;;5014191;28;20371;-76
2022/07/22 06:39:06;;;;;;;4.80;2.15;;;;;;;;;;5013258;28;20041;-76
2022/07/22 06:41:32;;;;;;;6.30;2.22;;;;;;;;;;4996716;28;20397;-76
2022/07/22 06:43:58;;;;;;;6.85;2.20;;;;;;;;;;5014868;28;20088;-76
2022/07/22 06:46:27;;;;;;;4.20;2.30;;;;;;;;;;5013201;28;20153;-75
2022/07/22 06:48:54;;;;;;;6.35;2.50;;;;;;;;;;4995847;28;20049;-75
2022/07/22 06:51:20;;;;;;;5.43;2.20;;;;;;;;;;5013096;28;20042;-75
2022/07/22 06:53:46;;;;;;;4.75;2.33;;;;;;;;;;4996701;28;20576;-74
2022/07/22 06:56:12;;;;;;;7.15;2.10;;;;;;;;;;5014097;28;20053;-75
2022/07/22 06:58:38;;;;;;;5.72;2.10;;;;;;;;;;5013208;28;20050;-76
2022/07/22 07:01:04;;;;;;;6.40;2.28;;;;;;;;;;4992132;28;20045;-76
2022/07/22 07:03:30;;;;;;;5.20;2.30;;;;;;;;;;5012076;28;20589;-76
2022/07/22 07:05:56;;;;;;;4.53;2.00;;;;;;;;;;5011220;28;20556;-76
2022/07/22 07:08:22;;;;;;;3.15;2.00;;;;;;;;;;4994610;28;20054;-79
2022/07/22 07:10:48;;;;;;;5.30;2.20;;;;;;;;;;4998478;28;20042;-77
2022/07/22 07:13:15;;;;;;;6.28;1.90;;;;;;;;;;5000494;28;20462;-75
2022/07/22 07:15:41;;;;;;;4.50;2.13;;;;;;;;;;5013819;28;20069;-75
2022/07/22 07:18:07;;;;;;;3.90;1.83;;;;;;;;;;5014273;28;20393;-76
2022/07/22 07:20:33;;;;;;;3.03;1.63;;;;;;;;;;5013927;28;20038;-75
2022/07/22 07:23:02;;;;;;;5.80;1.92;;;;;;;;;;5013188;28;20077;-76
2022/07/22 07:25:28;;;;;;;2.65;1.70;;;;;;;;;;5013592;28;20046;-75
2022/07/22 07:27:57;;;;;;;5.97;1.92;;;;;;;;;;5013098;28;20049;-75
2022/07/22 07:30:23;;;;;;;5.00;1.90;;;;;;;;;;5013344;28;20041;-75
2022/07/22 07:32:49;;;;;;;5.20;1.80;;;;;;;;;;5013869;28;20042;-76
2022/07/22 07:35:15;;;;;;;3.58;1.77;;;;;;;;;;4997397;28;20042;-80
2022/07/22 07:37:42;;;;;;;4.20;1.60;;;;;;;;;;5013523;28;20181;-77
2022/07/22 07:40:08;;;;;;;2.65;1.40;;;;;;;;;;5012855;28;20092;-74
2022/07/22 07:42:34;;;;;;;4.18;1.70;;;;;;;;;;5014528;28;20045;-76
2022/07/22 07:45:00;;;;;;;3.95;1.60;;;;;;;;;;4996179;28;20412;-76
2022/07/22 07:47:26;;;;;;;5.35;1.63;;;;;;;;;;5005050;28;20058;-76
2022/07/22 07:49:53;;;;;;;3.53;1.63;;;;;;;;;;4993128;28;20086;-76
2022/07/22 07:52:19;;;;;;;2.05;1.40;;;;;;;;;;4993755;28;20046;-77
2022/07/22 07:54:45;;;;;;;4.03;1.50;;;;;;;;;;4977149;28;20060;-76
2022/07/22 07:57:12;;;;;;;3.30;1.58;;;;;;;;;;5012210;28;20045;-76
2022/07/22 07:59:39;;;;;;;6.30;1.70;;;;;;;;;;5013210;28;20088;-76
2022/07/22 08:02:05;;;;;;;2.83;1.35;;;;;;;;;;5011763;28;20481;-76
2022/07/22 08:04:31;;;;;;;3.33;1.60;;;;;;;;;;5011345;28;20041;-76
2022/07/22 08:06:58;;;;;;;2.83;1.65;;;;;;;;;;5011653;28;20499;-76
2022/07/22 08:09:24;;;;;;;2.20;1.58;;;;;;;;;;5009737;28;20104;-75
2022/07/22 08:11:50;;;;;;;4.50;1.58;;;;;;;;;;5009793;28;20045;-77
2022/07/22 08:14:19;;;;;;;3.83;1.52;;;;;;;;;;5010605;28;20042;-76
2022/07/22 08:16:45;;;;;;;3.45;1.80;;;;;;;;;;5012986;28;20045;-76
2022/07/22 08:19:11;;;;;;;3.67;1.77;;;;;;;;;;4995362;28;20195;-77
2022/07/22 08:21:37;;;;;;;2.17;1.48;;;;;;;;;;4995730;28;20529;-76
2022/07/22 08:24:03;;;;;;;2.22;1.30;;;;;;;;;;5012477;28;20112;-77
2022/07/22 08:26:29;;;;;;;4.05;1.60;;;;;;;;;;4995332;28;20064;-76
2022/07/22 08:28:55;;;;;;;2.45;1.52;;;;;;;;;;5012784;28;20501;-77
2022/07/22 08:31:21;;;;;;;3.42;1.40;;;;;;;;;;4992331;28;20045;-76
2022/07/22 08:33:47;;;;;;;4.63;1.80;;;;;;;;;;4994583;28;20048;-77
2022/07/22 08:36:13;;;;;;;4.68;1.95;;;;;;;;;;4994134;28;20113;-77
2022/07/22 08:38:39;;;;;;;3.72;2.00;;;;;;;;;;5006599;28;20042;-78
2022/07/22 08:41:05;;;;;;;4.50;1.80;;;;;;;;;;4999798;28;20038;-77
2022/07/22 08:43:34;;;;;;;3.47;1.90;;;;;;;;;;4993500;28;20062;-77
2022/07/22 08:46:01;;;;;;;4.03;2.05;;;;;;;;;;4986601;28;20050;-77
2022/07/22 08:48:27;;;;;;;4.63;1.80;;;;;;;;;;4999589;28;20048;-76
2022/07/22 08:50:53;;;;;;;4.15;1.90;;;;;;;;;;5007368;28;20138;-75
2022/07/22 08:53:19;;;;;;;3.67;2.00;;;;;;;;;;5009950;28;20085;-76
2022/07/22 08:55:48;;;;;;;4.30;2.00;;;;;;;;;;5001887;28;20050;-76
2022/07/22 08:58:14;;;;;;;4.97;1.80;;;;;;;;;;4980017;28;20046;-77
2022/07/22 09:00:41;;;;;;;4.95;1.70;;;;;;;;;;5004366;28;20077;-77
2022/07/22 09:03:25;;;;;;;3.97;1.90;;;;;;;;;;5009930;28;20080;-76
2022/07/22 09:05:51;;;;;;;3.30;1.67;;;;;;;;;;5010468;28;20555;-76
2022/07/22 09:08:18;;;;;;;4.35;1.75;;;;;;;;;;4993192;28;20342;-77
2022/07/22 09:10:44;;;;;;;2.13;1.40;;;;;;;;;;5011843;28;20069;-77
2022/07/22 09:13:10;;;;;;;2.47;1.60;;;;;;;;;;4995142;28;20042;-77
2022/07/22 09:15:40;;;;;;;3.35;1.50;;;;;;;;;;5009348;28;20472;-77
2022/07/22 09:18:07;;;;;;;1.73;1.35;;;;;;;;;;5011655;28;20058;-77
2022/07/22 09:20:34;;;;;;;5.00;1.80;;;;;;;;;;5008955;28;20046;-77
2022/07/22 09:23:00;;;;;;;3.45;1.38;;;;;;;;;;4993391;28;20046;-77
2022/07/22 09:25:32;;;;;;;3.13;1.50;;;;;;;;;;5006122;28;20050;-77
2022/07/22 09:28:07;;;;;;;3.53;1.98;;;;;;;;;;4994294;28;20382;-76
2022/07/22 09:30:40;;;;;;;4.20;1.52;;;;;;;;;;4994901;28;20084;-79
2022/07/22 09:33:07;;;;;;;2.53;1.63;;;;;;;;;;5008581;28;20057;-77
2022/07/22 09:35:33;;;;;;;2.42;1.48;;;;;;;;;;4981437;28;20046;-78
2022/07/22 09:38:00;;;;;;;5.18;1.55;;;;;;;;;;5000246;28;20113;-79
2022/07/22 09:40:27;;;;;;;3.95;1.67;;;;;;;;;;5011708;28;20077;-82
2022/07/22 09:42:54;;;;;;;4.18;1.63;;;;;;;;;;5016471;28;20315;-75
2022/07/22 09:45:21;;;;;;;1.90;1.30;;;;;;;;;;5011302;28;20112;-77
2022/07/22 09:47:48;;;;;;;3.40;1.45;;;;;;;;;;5009635;28;20386;-78
2022/07/22 09:50:19;;;;;;;4.03;1.30;;;;;;;;;;4998047;28;20053;-77
2022/07/22 09:52:46;;;;;;;2.80;1.50;;;;;;;;;;4998479;28;20129;-79
2022/07/22 09:55:14;;;;;;;2.75;1.52;;;;;;;;;;4997246;28;20096;-77
2022/07/22 09:57:40;;;;;;;5.15;1.65;;;;;;;;;;5016411;28;20050;-76
2022/07/22 10:00:09;;;;;;;2.80;1.33;;;;;;;;;;5015858;28;20351;-74
2022/07/22 10:02:40;;;;;;;3.35;1.42;;;;;;;;;;5016123;28;20042;-80
2022/07/22 10:05:07;;;;;;;1.88;1.30;;;;;;;;;;5015975;28;20056;-83
2022/07/22 10:07:33;;;;;;;4.47;1.60;;;;;;;;;;4997927;28;20046;-76
2022/07/22 10:09:59;;;;;;;4.40;1.65;;;;;;;;;;5005557;28;20077;-77
2022/07/22 10:12:27;;;;;;;1.83;1.38;;;;;;;;;;5014039;28;20042;-77
2022/07/22 10:14:53;;;;;;;4.57;1.60;;;;;;;;;;4997832;28;20497;-76
2022/07/22 10:17:19;;;;;;;3.17;1.38;;;;;;;;;;5015666;28;20107;-77
2022/07/22 10:19:45;;;;;;;4.25;1.50;;;;;;;;;;5015579;28;20037;-77
2022/07/22 10:22:44;;;;;;;3.50;1.60;;;;;;;;;;5012671;28;20045;-77
2022/07/22 10:25:11;;;;;;;2.55;1.27;;;;;;;;;;5015415;28;20057;-77
2022/07/22 10:27:50;;;;;;;3.30;1.75;;;;;;;;;;5009395;28;20042;-76
2022/07/22 10:30:20;;;;;;;4.68;1.50;;;;;;;;;;5015689;28;20485;-77
2022/07/22 10:33:02;;;;;;;2.00;1.10;;;;;;;;;;5007183;28;20054;-77
2022/07/22 10:35:28;;;;;;;2.20;1.50;;;;;;;;;;4995797;28;20042;-77
2022/07/22 10:37:55;;;;;;;1.40;1.25;;;;;;;;;;5005057;28;20113;-76
2022/07/22 10:40:25;;;;;;;2.22;1.48;;;;;;;;;;5012542;28;20160;-77
2022/07/22 10:43:04;;;;;;;5.13;1.80;;;;;;;;;;5010841;28;20104;-77
2022/07/22 10:45:32;;;;;;;2.35;1.38;;;;;;;;;;5013604;28;20080;-77
2022/07/22 10:47:59;;;;;;;4.05;1.60;;;;;;;;;;4996948;28;20065;-77
2022/07/22 10:50:45;;;;;;;1.60;1.40;;;;;;;;;;4995800;28;20050;-77
2022/07/22 10:53:11;;;;;;;2.10;1.50;;;;;;;;;;5012907;28;20046;-78
2022/07/22 10:55:38;;;;;;;2.03;1.52;;;;;;;;;;5013654;28;20125;-77
2022/07/22 10:58:22;;;;;;;3.15;1.50;;;;;;;;;;5013376;28;20033;-77
2022/07/22 11:00:48;;;;;;;2.38;1.50;;;;;;;;;;5013029;28;20057;-76
2022/07/22 11:03:24;;;;;;;4.28;1.55;;;;;;;;;;5013509;28;20132;-76
2022/07/22 11:05:51;;;;;;;3.08;1.52;;;;;;;;;;5013292;28;20053;-77
2022/07/22 11:08:18;;;;;;;2.92;1.50;;;;;;;;;;5013777;28;20050;-76
2022/07/22 11:10:50;;;;;;;3.58;1.50;;;;;;;;;;4996678;28;20164;-76
2022/07/22 11:13:37;;;;;;;2.72;1.90;;;;;;;;;;4996806;28;20095;-77
2022/07/22 11:16:02;;;;;;;;;;;;;;;;;;4978756;28;20042;-76
2022/07/22 11:18:44;;;;;;;3.25;1.75;;;;;;;;;;5012685;28;19927;-77
2022/07/22 11:21:10;;;;;;;3.00;1.50;;;;;;;;;;4980235;28;20128;-76
2022/07/22 11:23:40;;;;;;;3.35;1.65;;;;;;;;;;5014035;28;20188;-76
2022/07/22 11:26:06;;;;;;;2.20;1.48;;;;;;;;;;4996235;28;20493;-76
2022/07/22 11:28:38;;;;;;;2.55;1.73;;;;;;;;;;4995372;28;20049;-76
2022/07/22 11:31:05;;;;;;;2.25;1.63;;;;;;;;;;4995301;28;20116;-76
2022/07/22 11:33:31;;;;;;;2.38;1.67;;;;;;;;;;5012952;28;20405;-76
2022/07/22 11:36:01;;;;;;;4.68;1.85;;;;;;;;;;5014035;28;20044;-77
2022/07/22 11:38:39;;;;;;;3.25;1.80;;;;;;;;;;5013880;28;20061;-77
2022/07/22 11:41:08;;;;;;;4.60;1.85;;;;;;;;;;5013520;28;20038;-76
2022/07/22 11:43:41;;;;;;;2.85;1.60;;;;;;;;;;5013592;28;20037;-77
2022/07/22 11:46:07;;;;;;;4.00;1.75;;;;;;;;;;5012338;28;20054;-77
2022/07/22 11:48:33;;;;;;;3.72;1.70;;;;;;;;;;5012684;28;20049;-76
2022/07/22 11:51:00;;;;;;;3.60;1.80;;;;;;;;;;5013532;28;20046;-77
2022/07/22 11:53:26;;;;;;;3.25;1.70;;;;;;;;;;5013518;28;20049;-76
2022/07/22 11:55:56;;;;;;;4.22;2.00;;;;;;;;;;5012376;28;20049;-76
2022/07/22 11:58:35;;;;;;;4.75;1.90;;;;;;;;;;5013606;28;20056;-76
2022/07/22 12:01:01;;;;;;;3.63;1.77;;;;;;;;;;5011860;28;20531;-77
2022/07/22 12:03:28;;;;;;;4.95;2.05;;;;;;;;;;4994176;28;20141;-77
2022/07/22 12:05:54;;;;;;;4.53;1.92;;;;;;;;;;4995319;28;20081;-78
2022/07/22 12:08:20;;;;;;;4.40;1.90;;;;;;;;;;5013174;28;20050;-77
2022/07/22 12:10:47;;;;;;;4.25;2.00;;;;;;;;;;5013280;28;20465;-76
2022/07/22 12:13:13;;;;;;;2.42;1.58;;;;;;;;;;4995583;28;20450;-77
2022/07/22 12:15:40;;;;;;;4.15;1.98;;;;;;;;;;4979007;28;20046;-81
2022/07/22 12:18:20;;;;;;;4.80;2.25;;;;;;;;;;4994317;28;20038;-80
2022/07/22 12:20:46;;;;;;;3.47;1.80;;;;;;;;;;4994530;28;20038;-78
2022/07/22 12:23:12;;;;;;;5.18;1.88;;;;;;;;;;5013140;28;20042;-80
2022/07/22 12:25:55;;;;;;;7.68;2.10;;;;;;;;;;5013174;28;20056;-87
2022/07/22 12:28:21;;;;;;;2.70;1.75;;;;;;;;;;4992425;28;20046;-86
2022/07/22 12:30:47;;;;;;;4.05;1.83;;;;;;;;;;5009958;28;20046;-76
2022/07/22 12:33:15;;;;;;;3.42;1.60;;;;;;;;;;5011501;28;20046;-80
2022/07/22 12:35:41;;;;;;;3.15;1.90;;;;;;;;;;5009537;28;20053;-82
2022/07/22 12:38:08;;;;;;;3.03;2.00;;;;;;;;;;5009541;28;20470;-83
2022/07/22 12:40:34;;;;;;;3.15;1.60;;;;;;;;;;5011639;28;20045;-75
2022/07/22 12:43:00;;;;;;;4.88;1.95;;;;;;;;;;4992960;28;20054;-80
2022/07/22 12:45:26;;;;;;;3.75;1.90;;;;;;;;;;5003533;28;20042;-80
2022/07/22 12:48:00;;;;;;;2.70;1.70;;;;;;;;;;4992526;28;20057;-75
2022/07/22 12:50:29;;;;;;;5.95;2.00;;;;;;;;;;5013204;28;20048;-84
2022/07/22 12:52:57;;;;;;;4.93;1.80;;;;;;;;;;5013403;28;20143;-79
2022/07/22 12:55:24;;;;;;;3.92;1.90;;;;;;;;;;5013081;28;20053;-79
2022/07/22 12:57:50;;;;;;;2.78;1.70;;;;;;;;;;5008725;28;20041;-75
2022/07/22 13:00:26;;;;;;;2.33;1.67;;;;;;;;;;5012469;28;20053;-75
2022/07/22 13:02:52;;;;;;;5.35;1.80;;;;;;;;;;5012844;28;20143;-76
2022/07/22 13:05:19;;;;;;;4.20;1.80;;;;;;;;;;5011970;28;20496;-76
2022/07/22 13:07:45;;;;;;;2.60;1.75;;;;;;;;;;5012599;28;20042;-76
2022/07/22 13:10:11;;;;;;;2.30;1.88;;;;;;;;;;5010241;28;20042;-76
2022/07/22 13:12:37;;;;;;;4.38;1.83;;;;;;;;;;5008199;28;20458;-75
2022/07/22 13:15:04;;;;;;;2.45;1.60;;;;;;;;;;5014512;28;20046;-76
2022/07/22 13:17:30;;;;;;;1.98;1.60;;;;;;;;;;5013934;28;20046;-75
2022/07/22 13:19:56;;;;;;;4.80;1.70;;;;;;;;;;5015593;28;20663;-75
2022/07/22 13:22:22;;;;;;;3.42;1.73;;;;;;;;;;5014381;28;20041;-75
2022/07/22 13:24:48;;;;;;;6.15;2.00;;;;;;;;;;4996966;28;20084;-75
2022/07/22 13:27:15;;;;;;;4.57;2.03;;;;;;;;;;4996288;28;20099;-76
2022/07/22 13:29:41;;;;;;;3.47;1.55;;;;;;;;;;4996942;28;20100;-76
2022/07/22 13:32:07;;;;;;;3.47;1.88;;;;;;;;;;5014457;28;20099;-83
2022/07/22 13:34:33;;;;;;;4.55;1.80;;;;;;;;;;5014062;28;20115;-76
2022/07/22 13:37:00;;;;;;;9.63;2.22;;;;;;;;;;5012276;28;20061;-82
2022/07/22 13:39:26;;;;;;;4.85;1.95;;;;;;;;;;4989875;28;20129;-75
2022/07/22 13:41:52;;;;;;;3.08;1.48;;;;;;;;;;5014590;28;20056;-74
2022/07/22 13:44:18;;;;;;;4.82;1.90;;;;;;;;;;5014394;28;20046;-79
2022/07/22 13:46:45;;;;;;;5.32;1.83;;;;;;;;;;4979204;28;20140;-78
2022/07/22 13:49:11;;;;;;;6.70;2.30;;;;;;;;;;5014636;28;20072;-74
2022/07/22 13:51:37;;;;;;;3.25;2.05;;;;;;;;;;5009065;28;20053;-75
2022/07/22 13:54:04;;;;;;;5.70;2.10;;;;;;;;;;4977053;28;20038;-85
2022/07/22 13:56:31;;;;;;;3.95;2.03;;;;;;;;;;4978464;28;20184;-74
2022/07/22 13:58:58;;;;;;;4.65;2.30;;;;;;;;;;5009846;28;20045;-75
2022/07/22 14:01:24;;;;;;;4.28;1.92;;;;;;;;;;5015592;28;20052;-74
2022/07/22 14:03:50;;;;;;;4.22;1.90;;;;;;;;;;5015967;28;20129;-75
2022/07/22 14:06:16;;;;;;;2.80;1.90;;;;;;;;;;5012925;28;20078;-76
2022/07/22 14:08:43;;;;;;;11.48;2.10;;;;;;;;;;5001866;28;20108;-74
2022/07/22 14:11:09;;;;;;;5.28;1.80;;;;;;;;;;5015852;28;20057;-76
2022/07/22 14:13:35;;;;;;;4.40;2.00;;;;;;;;;;4997453;28;20037;-76
2022/07/22 14:16:33;;;;;;;5.55;1.77;;;;;;;;;;5015356;28;20050;-77
2022/07/22 14:18:47;;;;;;;6.15;1.70;;;;;;;;;;5015056;28;20136;-76
2022/07/22 14:21:14;;;;;;;6.78;1.88;;;;;;;;;;4979664;28;20124;-76
2022/07/22 14:23:40;;;;;;;4.35;1.90;;;;;;;;;;4996831;28;20046;-77
2022/07/22 14:26:06;;;;;;;4.95;1.92;;;;;;;;;;4997297;28;20053;-76
2022/07/22 14:28:32;;;;;;;5.47;2.05;;;;;;;;;;5015381;28;20129;-82
2022/07/22 14:30:58;;;;;;;3.40;1.90;;;;;;;;;;4995975;28;20112;-84
2022/07/22 14:33:24;;;;;;;6.05;1.70;;;;;;;;;;4962891;28;20077;-78
2022/07/22 14:35:50;;;;;;;6.35;1.65;;;;;;;;;;4995293;28;20100;-81
2022/07/22 14:38:17;;;;;;;3.40;1.48;;;;;;;;;;4978096;28;20549;-79
2022/07/22 14:40:43;;;;;;;2.42;1.70;;;;;;;;;;4977729;28;20051;-78
2022/07/22 14:43:09;;;;;;;2.85;1.58;;;;;;;;;;4995604;28;20069;-79